Time;durP1;ratioP1;P1;durP2;ratioP2;P2;SDS_P1;SDS_P2;PMS_P1;PMS_P2;Temp;Humidity;BMP_temperature;BMP_pressure;BME280_temperature;BME280_humidity;BME280_pressure;Samples;Min_cycle;Max_cycle;Signal;HPM_P1;HPM_P2
2022/07/14 00:00:36;;;;;;;20.30;18.60;;;;;;;18.99;nan;99077.09;2074617;28;20447;-73
2022/07/14 00:01:38;;;;;;;19.93;18.33;;;;;;;18.94;nan;99066.56;2074453;28;20220;-72
2022/07/14 00:02:40;;;;;;;20.10;18.60;;;;;;;18.91;nan;99078.84;2082807;28;20430;-72
2022/07/14 00:03:42;;;;;;;20.87;19.13;;;;;;;18.91;nan;99083.47;2075159;28;20977;-73
2022/07/14 00:04:45;;;;;;;20.20;18.50;;;;;;;18.89;nan;99077.66;2075377;28;20524;-73
2022/07/14 00:05:45;;;;;;;20.43;18.73;;;;;;;18.85;nan;99074.88;2075233;28;20873;-73
2022/07/14 00:06:47;;;;;;;20.70;19.07;;;;;;;18.84;nan;99094.13;2075039;28;20470;-73
2022/07/14 00:07:52;;;;;;;20.13;18.63;;;;;;;18.82;nan;99089.06;2074542;28;20227;-73
2022/07/14 00:08:53;;;;;;;21.07;19.17;;;;;;;18.79;nan;99080.88;2066874;28;20454;-73
2022/07/14 00:09:54;;;;;;;20.23;18.73;;;;;;;18.78;nan;99084.72;2074774;28;20463;-73
2022/07/14 00:10:56;;;;;;;20.60;18.90;;;;;;;18.78;nan;99088.22;2074638;28;20435;-73
2022/07/14 00:11:56;;;;;;;20.03;18.63;;;;;;;18.78;nan;99085.50;2074793;28;20196;-72
2022/07/14 00:12:58;;;;;;;21.57;19.43;;;;;;;18.78;nan;99090.13;2075235;28;20431;-73
2022/07/14 00:13:58;;;;;;;20.97;19.03;;;;;;;18.80;nan;99093.25;2075320;28;20602;-73
2022/07/14 00:15:02;;;;;;;19.73;18.33;;;;;;;18.80;nan;99093.25;2074612;28;20462;-73
2022/07/14 00:16:04;;;;;;;20.93;19.27;;;;;;;18.79;nan;99081.66;2074821;28;20572;-73
2022/07/14 00:17:07;;;;;;;20.97;19.17;;;;;;;18.79;nan;99078.19;2074355;28;20532;-72
2022/07/14 00:18:11;;;;;;;20.97;18.73;;;;;;;18.81;nan;99089.41;2074547;28;20461;-72
2022/07/14 00:19:12;;;;;;;20.70;19.00;;;;;;;18.79;nan;99087.06;2075102;28;20431;-73
2022/07/14 00:20:14;;;;;;;20.70;18.90;;;;;;;18.77;nan;99078.53;2075218;28;20427;-72
2022/07/14 00:21:16;;;;;;;20.33;18.73;;;;;;;18.79;nan;99080.88;2074905;28;20510;-72
2022/07/14 00:22:17;;;;;;;20.23;18.43;;;;;;;18.76;nan;99084.25;2075239;28;20866;-72
2022/07/14 00:23:24;;;;;;;20.27;18.70;;;;;;;18.77;nan;99080.47;2074707;28;20872;-73
2022/07/14 00:24:26;;;;;;;20.10;18.50;;;;;;;18.76;nan;99082.34;2074806;28;20181;-72
2022/07/14 00:25:28;;;;;;;20.13;18.53;;;;;;;18.74;nan;99073.03;2075287;28;20419;-72
2022/07/14 00:26:29;;;;;;;21.47;19.50;;;;;;;18.76;nan;99076.16;2074779;28;20478;-72
2022/07/14 00:27:30;;;;;;;20.73;19.00;;;;;;;18.77;nan;99077.75;2074471;28;20431;-72
2022/07/14 00:28:32;;;;;;;20.67;19.07;;;;;;;18.80;nan;99071.63;2082607;28;20194;-72
2022/07/14 00:29:35;;;;;;;20.73;19.10;;;;;;;18.83;nan;99077.13;2074689;28;20891;-73
2022/07/14 00:30:38;;;;;;;19.73;18.23;;;;;;;18.82;nan;99069.34;2074465;28;20430;-72
2022/07/14 00:31:40;;;;;;;20.13;18.60;;;;;;;18.82;nan;99074.75;2075001;28;20427;-73
2022/07/14 00:32:42;;;;;;;20.53;18.93;;;;;;;18.82;nan;99074.75;2075337;28;20454;-73
2022/07/14 00:33:44;;;;;;;20.43;18.93;;;;;;;18.79;nan;99064.66;2075137;28;20489;-72
2022/07/14 00:34:46;;;;;;;20.87;19.20;;;;;;;18.76;nan;99076.16;2075060;28;20458;-72
2022/07/14 00:35:48;;;;;;;21.00;19.43;;;;;;;18.73;nan;99072.25;2075005;28;20518;-72
2022/07/14 00:36:49;;;;;;;21.43;19.63;;;;;;;18.70;nan;99072.16;2074731;28;20973;-72
2022/07/14 00:37:53;;;;;;;20.87;19.17;;;;;;;18.67;nan;99072.84;2074341;28;20879;-72
2022/07/14 00:38:57;;;;;;;20.30;18.60;;;;;;;18.63;nan;99076.22;2066611;28;20193;-72
2022/07/14 00:40:02;;;;;;;20.60;19.00;;;;;;;18.59;nan;99072.66;2074629;28;20439;-72
2022/07/14 00:41:03;;;;;;;20.87;19.27;;;;;;;18.55;nan;99071.78;2082263;28;20419;-72
2022/07/14 00:42:05;;;;;;;20.13;18.70;;;;;;;18.53;nan;99070.56;2075068;28;20514;-72
2022/07/14 00:43:06;;;;;;;20.80;19.10;;;;;;;18.49;nan;99066.97;2074235;28;20204;-73
2022/07/14 00:44:08;;;;;;;20.73;19.17;;;;;;;18.50;nan;99065.84;2074270;28;20458;-72
2022/07/14 00:45:11;;;;;;;20.77;18.83;;;;;;;18.49;nan;99062.34;2075103;28;20504;-72
2022/07/14 00:46:13;;;;;;;20.67;18.83;;;;;;;18.48;nan;99070.81;2075055;28;20428;-72
2022/07/14 00:47:13;;;;;;;21.27;19.57;;;;;;;18.45;nan;99066.91;2074940;28;20942;-72
2022/07/14 00:48:17;;;;;;;21.40;19.60;;;;;;;18.44;nan;99068.03;2075063;28;20767;-73
2022/07/14 00:49:33;;;;;;;20.13;18.57;;;;;;;18.41;nan;99066.00;2074886;28;20200;-72
2022/07/14 00:50:37;;;;;;;20.27;18.77;;;;;;;18.35;nan;99065.50;2074885;28;20486;-73
2022/07/14 00:51:37;;;;;;;20.63;18.63;;;;;;;18.31;nan;99066.53;2073985;28;20451;-72
2022/07/14 00:52:41;;;;;;;20.67;18.97;;;;;;;18.28;nan;99061.81;2074231;28;20447;-73
2022/07/14 00:53:42;;;;;;;20.83;18.90;;;;;;;18.25;nan;99063.31;2074200;28;21000;-73
2022/07/14 00:54:44;;;;;;;19.90;18.43;;;;;;;18.22;nan;99058.59;2074144;28;20826;-73
2022/07/14 00:55:46;;;;;;;20.33;18.60;;;;;;;18.20;nan;99065.47;2074107;28;20713;-73
2022/07/14 00:56:49;;;;;;;20.73;18.87;;;;;;;18.21;nan;99056.25;2074476;28;20984;-73
2022/07/14 00:57:50;;;;;;;20.67;18.97;;;;;;;18.19;nan;99053.09;2082514;28;20484;-73
2022/07/14 00:58:52;;;;;;;20.23;18.73;;;;;;;18.19;nan;99064.69;2074911;28;20463;-72
2022/07/14 00:59:53;;;;;;;20.73;19.03;;;;;;;18.14;nan;99061.44;2074091;28;20553;-72
2022/07/14 01:00:55;;;;;;;21.10;19.37;;;;;;;18.11;nan;99054.03;2074286;28;20449;-73
2022/07/14 01:01:56;;;;;;;22.10;20.37;;;;;;;18.05;nan;99059.69;2074245;28;20454;-72
2022/07/14 01:02:58;;;;;;;20.53;18.83;;;;;;;17.98;nan;99051.44;2074262;28;20432;-72
2022/07/14 01:04:01;;;;;;;21.10;19.43;;;;;;;17.92;nan;99052.78;2074374;28;20235;-73
2022/07/14 01:05:04;;;;;;;21.40;19.60;;;;;;;17.87;nan;99049.53;2074171;28;20430;-72
2022/07/14 01:06:05;;;;;;;20.43;18.93;;;;;;;17.78;nan;99041.59;2074347;28;20442;-72
2022/07/14 01:07:08;;;;;;;20.27;18.60;;;;;;;17.72;nan;99046.47;2074469;28;20542;-72
2022/07/14 01:08:09;;;;;;;20.37;18.87;;;;;;;17.65;nan;99042.75;2074243;28;20465;-72
2022/07/14 01:09:11;;;;;;;20.37;18.77;;;;;;;17.58;nan;99043.34;2082685;28;20461;-73
2022/07/14 01:10:12;;;;;;;20.30;18.70;;;;;;;17.50;nan;99042.34;2074780;28;20431;-73
2022/07/14 01:11:14;;;;;;;20.57;18.83;;;;;;;17.45;nan;99041.78;2074051;28;20443;-72
2022/07/14 01:12:14;;;;;;;20.40;18.90;;;;;;;17.42;nan;99040.56;2074419;28;20463;-73
2022/07/14 01:13:19;;;;;;;20.10;18.40;;;;;;;17.38;nan;99041.59;2074902;28;20433;-72
2022/07/14 01:14:21;;;;;;;20.07;18.53;;;;;;;17.34;nan;99041.50;2074805;28;20169;-73
2022/07/14 01:15:23;;;;;;;20.03;18.53;;;;;;;17.34;nan;99046.88;2074709;28;20423;-72
2022/07/14 01:16:25;;;;;;;19.80;18.20;;;;;;;17.34;nan;99046.09;2073960;28;20207;-73
2022/07/14 01:17:27;;;;;;;20.73;19.13;;;;;;;17.32;nan;99042.97;2066066;28;20994;-73
2022/07/14 01:18:28;;;;;;;20.77;18.83;;;;;;;17.31;nan;99046.78;2074098;28;20212;-72
2022/07/14 01:19:31;;;;;;;21.40;19.37;;;;;;;17.32;nan;99038.34;2075038;28;20430;-73
2022/07/14 01:20:32;;;;;;;20.93;19.13;;;;;;;17.34;nan;99046.88;2075153;28;20196;-73
2022/07/14 01:21:38;;;;;;;20.67;18.80;;;;;;;17.33;nan;99041.84;2074361;28;20482;-72
2022/07/14 01:22:39;;;;;;;20.90;18.90;;;;;;;17.33;nan;99044.53;2074942;28;20199;-72
2022/07/14 01:23:41;;;;;;;20.50;18.93;;;;;;;17.33;nan;99044.53;2074281;28;20538;-72
2022/07/14 01:24:43;;;;;;;20.53;18.67;;;;;;;17.36;nan;99050.00;2074367;28;20216;-73
2022/07/14 01:25:45;;;;;;;20.93;18.97;;;;;;;17.37;nan;99040.78;2082606;28;20437;-72
2022/07/14 01:26:46;;;;;;;21.00;19.47;;;;;;;17.38;nan;99034.31;2073994;28;20291;-72
2022/07/14 01:27:50;;;;;;;20.10;18.60;;;;;;;17.37;nan;99035.41;2074010;28;20427;-72
2022/07/14 01:28:50;;;;;;;20.60;19.00;;;;;;;17.35;nan;99032.28;2073933;28;20215;-72
2022/07/14 01:29:52;;;;;;;20.90;19.10;;;;;;;17.30;nan;99035.22;2074094;28;20431;-72
2022/07/14 01:30:53;;;;;;;21.57;19.57;;;;;;;17.25;nan;99030.06;2074300;28;20204;-72
2022/07/14 01:31:56;;;;;;;20.80;19.20;;;;;;;17.22;nan;99030.75;2074058;28;20438;-72
2022/07/14 01:32:58;;;;;;;20.40;18.70;;;;;;;17.19;nan;99039.50;2074807;28;20212;-73
2022/07/14 01:34:02;;;;;;;20.70;19.10;;;;;;;17.18;nan;99038.72;2073863;28;20519;-72
2022/07/14 01:35:05;;;;;;;20.17;18.47;;;;;;;17.17;nan;99039.06;2065608;28;20806;-73
2022/07/14 01:36:08;;;;;;;21.13;19.30;;;;;;;17.14;nan;99031.66;2073750;28;20427;-73
2022/07/14 01:37:10;;;;;;;20.17;18.30;;;;;;;17.14;nan;99035.13;2073886;28;20446;-72
2022/07/14 01:38:11;;;;;;;20.47;18.53;;;;;;;17.18;nan;99033.31;2065632;28;20946;-72
2022/07/14 01:39:12;;;;;;;20.17;18.67;;;;;;;17.25;nan;99030.06;2065775;28;20522;-72
2022/07/14 01:40:16;;;;;;;19.87;18.30;;;;;;;17.28;nan;99037.44;2073938;28;20442;-72
2022/07/14 01:41:17;;;;;;;20.17;18.40;;;;;;;17.32;nan;99030.25;2073944;28;20207;-72
2022/07/14 01:42:19;;;;;;;20.83;19.03;;;;;;;17.34;nan;99030.69;2065770;28;20482;-72
2022/07/14 01:43:19;;;;;;;21.03;18.93;;;;;;;17.34;nan;99033.41;2073910;28;20192;-72
2022/07/14 01:44:21;;;;;;;20.07;18.50;;;;;;;17.35;nan;99032.28;2074626;28;20554;-72
2022/07/14 01:45:22;;;;;;;19.87;18.17;;;;;;;17.35;nan;99032.28;2073807;28;20207;-73
2022/07/14 01:46:25;;;;;;;20.20;18.40;;;;;;;17.35;nan;99026.88;2073885;28;20455;-72
2022/07/14 01:47:28;;;;;;;20.20;18.50;;;;;;;17.33;nan;99025.66;2073767;28;20189;-72
2022/07/14 01:48:29;;;;;;;19.87;18.27;;;;;;;17.31;nan;99023.31;2065815;28;20555;-72
2022/07/14 01:49:31;;;;;;;20.27;18.57;;;;;;;17.27;nan;99021.63;2073818;28;20419;-72
2022/07/14 01:50:35;;;;;;;19.77;18.10;;;;;;;17.24;nan;99017.69;2073790;28;20203;-73
2022/07/14 01:51:36;;;;;;;20.57;18.73;;;;;;;17.19;nan;99012.53;2065080;28;20832;-72
2022/07/14 01:52:43;;;;;;;19.80;18.10;;;;;;;17.18;nan;99021.75;2073776;28;20446;-73
2022/07/14 01:53:44;;;;;;;20.63;18.70;;;;;;;17.14;nan;99012.78;2073751;28;20447;-72
2022/07/14 01:54:49;;;;;;;20.67;18.93;;;;;;;17.12;nan;99020.44;2065836;28;20440;-72
2022/07/14 01:55:52;;;;;;;21.50;19.43;;;;;;;17.08;nan;99014.91;2065799;28;20440;-73
2022/07/14 01:56:54;;;;;;;20.53;18.93;;;;;;;17.06;nan;99021.78;2065867;28;20526;-72
2022/07/14 01:57:55;;;;;;;20.37;18.73;;;;;;;17.04;nan;99024.03;2065629;28;20440;-72
2022/07/14 01:58:57;;;;;;;20.67;19.07;;;;;;;17.00;nan;99020.44;2073577;28;20486;-72
2022/07/14 01:59:58;;;;;;;20.40;18.80;;;;;;;16.99;nan;99013.47;2073714;28;20462;-72
2022/07/14 02:02:18;;;;;;;21.10;19.40;;;;;;;16.93;nan;99024.47;2059767;28;20439;-72
2022/07/14 02:03:19;;;;;;;21.03;19.37;;;;;;;16.90;nan;99017.06;2073728;28;20447;-73
2022/07/14 02:04:21;;;;;;;20.30;18.70;;;;;;;16.88;nan;99016.63;2073548;28;20582;-72
2022/07/14 02:05:22;;;;;;;21.17;19.20;;;;;;;16.86;nan;99026.97;2073641;28;20661;-73
2022/07/14 02:06:25;;;;;;;19.77;18.27;;;;;;;16.86;nan;99020.81;2065345;28;20474;-73
2022/07/14 02:07:26;;;;;;;20.60;18.83;;;;;;;16.86;nan;99021.59;2073781;28;20459;-73
2022/07/14 02:08:40;;;;;;;20.47;18.87;;;;;;;16.87;nan;99025.84;2073652;28;20503;-72
2022/07/14 02:12:28;;;;;;;21.10;19.50;;;;;;;16.96;nan;99020.34;2067883;28;20911;-72
2022/07/14 02:13:28;;;;;;;20.23;18.50;;;;;;;16.97;nan;99021.13;2073676;28;20435;-72
2022/07/14 02:14:33;;;;;;;20.80;18.90;;;;;;;17.00;nan;99017.75;2074445;28;20423;-73
2022/07/14 02:15:35;;;;;;;20.67;18.97;;;;;;;17.00;nan;99023.13;2073602;28;20185;-72
2022/07/14 02:16:38;;;;;;;21.03;19.37;;;;;;;17.00;nan;99017.75;2073915;28;20447;-72
2022/07/14 02:17:40;;;;;;;20.80;19.20;;;;;;;17.02;nan;99028.97;2074220;28;20431;-72
2022/07/14 02:18:41;;;;;;;21.30;19.50;;;;;;;17.03;nan;99020.56;2073584;28;20848;-72
2022/07/14 02:19:43;;;;;;;29.33;20.00;;;;;;;17.03;nan;99020.56;2073340;28;20466;-72
2022/07/14 02:20:44;;;;;;;20.67;18.90;;;;;;;17.05;nan;99028.31;2074224;28;20466;-72
2022/07/14 02:21:46;;;;;;;20.43;18.43;;;;;;;17.07;nan;99020.66;2073999;28;20455;-72
2022/07/14 02:22:49;;;;;;;20.40;18.73;;;;;;;17.11;nan;99027.72;2074184;28;20219;-72
2022/07/14 02:23:59;;;;;;;20.23;18.40;;;;;;;17.12;nan;99023.13;2073526;28;20439;-72
2022/07/14 02:25:00;;;;;;;20.50;18.83;;;;;;;17.09;nan;99019.19;2066438;28;20468;-72
2022/07/14 02:26:02;;;;;;;20.07;18.67;;;;;;;17.12;nan;99023.91;2073537;28;20467;-72
2022/07/14 02:27:03;;;;;;;21.10;19.30;;;;;;;17.11;nan;99022.31;2073491;28;20211;-72
2022/07/14 02:28:05;;;;;;;20.93;19.37;;;;;;;17.11;nan;99019.63;2073569;28;20960;-72
2022/07/14 02:29:07;;;;;;;20.80;19.07;;;;;;;17.09;nan;99021.88;2073821;28;20196;-72
2022/07/14 02:30:09;;;;;;;20.10;18.47;;;;;;;17.09;nan;99021.09;2073563;28;20431;-72
2022/07/14 02:31:12;;;;;;;20.37;18.67;;;;;;;17.06;nan;99013.69;2081728;28;20446;-72
2022/07/14 02:32:13;;;;;;;20.63;19.03;;;;;;;17.04;nan;99022.13;2081853;28;20426;-72
2022/07/14 02:33:14;;;;;;;20.80;19.10;;;;;;;17.02;nan;99020.88;2074253;28;20195;-72
2022/07/14 02:34:16;;;;;;;20.90;19.10;;;;;;;17.01;nan;99022.00;2073483;28;20478;-72
2022/07/14 02:35:18;;;;;;;20.13;18.63;;;;;;;16.98;nan;99018.09;2065452;28;20204;-72
2022/07/14 02:36:23;;;;;;;20.23;18.73;;;;;;;16.97;nan;99021.91;2064973;28;21010;-73
2022/07/14 02:37:25;;;;;;;20.87;19.37;;;;;;;16.97;nan;99023.81;2074130;28;20442;-72
2022/07/14 02:38:27;;;;;;;21.60;19.60;;;;;;;16.95;nan;99022.25;2073487;28;20883;-72
2022/07/14 02:39:30;;;;;;;20.17;18.67;;;;;;;16.97;nan;99026.50;2073834;28;20515;-72
2022/07/14 02:40:32;;;;;;;19.57;17.77;;;;;;;16.97;nan;99023.81;2074284;28;20478;-72
2022/07/14 02:41:33;;;;;;;19.03;17.73;;;;;;;16.97;nan;99021.13;2073550;28;20981;-72
2022/07/14 02:42:34;;;;;;;19.93;18.43;;;;;;;17.02;nan;99028.97;2073748;28;20852;-72
2022/07/14 02:43:37;;;;;;;19.17;17.70;;;;;;;17.03;nan;99023.25;2073435;28;20443;-72
2022/07/14 02:44:42;;;;;;;20.00;18.50;;;;;;;17.05;nan;99031.00;2065718;28;20300;-72
2022/07/14 02:45:44;;;;;;;19.80;17.80;;;;;;;17.06;nan;99035.25;2065561;28;20440;-73
2022/07/14 02:46:45;;;;;;;19.40;17.90;;;;;;;17.09;nan;99026.47;2065379;28;20487;-72
2022/07/14 02:47:46;;;;;;;19.23;17.73;;;;;;;17.11;nan;99029.63;2065367;28;20440;-72
2022/07/14 02:48:47;;;;;;;18.90;17.30;;;;;;;17.12;nan;99029.31;2065309;28;20208;-72
2022/07/14 02:49:52;;;;;;;18.97;17.57;;;;;;;17.13;nan;99030.88;2073563;28;20454;-72
2022/07/14 02:51:00;;;;;;;18.47;16.87;;;;;;;17.13;nan;99022.78;2073383;28;20443;-72
2022/07/14 02:52:02;;;;;;;19.33;17.60;;;;;;;17.15;nan;99030.53;2074390;28;20423;-72
2022/07/14 02:53:03;;;;;;;19.70;17.90;;;;;;;17.14;nan;99031.66;2073463;28;20970;-72
2022/07/14 02:54:07;;;;;;;19.63;18.10;;;;;;;17.19;nan;99028.72;2065922;28;20436;-72
2022/07/14 02:55:10;;;;;;;19.27;17.67;;;;;;;17.22;nan;99038.84;2065415;28;20934;-72
2022/07/14 02:56:16;;;;;;;19.00;17.10;;;;;;;17.24;nan;99037.34;2074032;28;20450;-72
2022/07/14 02:57:17;;;;;;;18.77;17.33;;;;;;;17.28;nan;99034.75;2073304;28;20455;-72
2022/07/14 02:58:19;;;;;;;19.13;17.53;;;;;;;17.38;nan;99037.00;2073375;28;20474;-72
2022/07/14 02:59:21;;;;;;;19.63;17.67;;;;;;;17.43;nan;99039.44;2081552;28;20909;-72
2022/07/14 03:00:24;;;;;;;19.40;17.70;;;;;;;17.46;nan;99035.25;2073328;28;20832;-73
2022/07/14 03:01:27;;;;;;;19.80;18.20;;;;;;;17.49;nan;99032.69;2073431;28;20458;-72
2022/07/14 03:02:28;;;;;;;20.20;18.40;;;;;;;17.49;nan;99030.00;2073757;28;20541;-72
2022/07/14 03:03:30;;;;;;;20.30;18.57;;;;;;;17.52;nan;99029.28;2073434;28;20896;-72
2022/07/14 03:04:35;;;;;;;20.73;18.57;;;;;;;17.55;nan;99032.44;2081524;28;20881;-72
2022/07/14 03:05:36;;;;;;;18.80;17.37;;;;;;;17.65;nan;99042.75;2073797;28;20454;-72
2022/07/14 03:06:38;;;;;;;19.20;17.77;;;;;;;17.66;nan;99033.53;2064814;28;20483;-72
2022/07/14 03:07:41;;;;;;;18.70;17.40;;;;;;;17.66;nan;99033.53;2073603;28;20581;-72
2022/07/14 03:08:43;;;;;;;20.10;18.17;;;;;;;17.68;nan;99039.38;2073384;28;20522;-72
2022/07/14 03:09:45;;;;;;;19.50;17.90;;;;;;;17.67;nan;99025.09;2065750;28;20502;-73
2022/07/14 03:10:49;;;;;;;20.47;18.60;;;;;;;17.70;nan;99027.13;2073717;28;20486;-72
2022/07/14 03:11:52;;;;;;;19.30;18.00;;;;;;;17.72;nan;99032.16;2073351;28;20265;-72
2022/07/14 03:12:56;;;;;;;19.60;17.90;;;;;;;17.75;nan;99036.91;2065399;28;20436;-72
2022/07/14 03:13:57;;;;;;;19.03;17.63;;;;;;;17.76;nan;99031.16;2073711;28;20451;-72
2022/07/14 03:15:00;;;;;;;19.10;17.60;;;;;;;17.83;nan;99027.09;2073291;28;21047;-72
2022/07/14 03:16:02;;;;;;;18.37;17.07;;;;;;;17.85;nan;99028.31;2073412;28;20502;-72
2022/07/14 03:17:03;;;;;;;20.27;18.40;;;;;;;17.90;nan;99027.28;2073200;28;20459;-73
2022/07/14 03:18:06;;;;;;;20.60;18.47;;;;;;;17.92;nan;99017.69;2073303;28;20455;-73
2022/07/14 03:19:15;;;;;;;19.97;18.27;;;;;;;17.89;nan;99018.38;2073362;28;20451;-73
2022/07/14 03:20:19;;;;;;;19.60;17.87;;;;;;;17.86;nan;99019.06;2066024;28;20541;-73
2022/07/14 03:21:22;;;;;;;19.10;17.53;;;;;;;17.87;nan;99015.25;2073190;28;20456;-72
2022/07/14 03:22:26;;;;;;;19.53;18.03;;;;;;;17.88;nan;99021.41;2074034;28;20164;-72
2022/07/14 03:23:31;;;;;;;19.77;18.20;;;;;;;17.86;nan;99019.06;2073539;28;20868;-72
2022/07/14 03:24:33;;;;;;;19.87;18.30;;;;;;;17.90;nan;99008.38;2065191;28;20480;-72
2022/07/14 03:25:38;;;;;;;19.83;17.93;;;;;;;17.87;nan;99004.44;2065731;28;20439;-72
2022/07/14 03:26:44;;;;;;;20.40;18.53;;;;;;;17.88;nan;99010.63;2073523;28;20438;-72
2022/07/14 03:27:47;;;;;;;21.20;19.03;;;;;;;17.87;nan;99012.53;2073493;28;20435;-73
2022/07/14 03:28:49;;;;;;;19.80;18.30;;;;;;;17.86;nan;99013.66;2073595;28;20883;-73
2022/07/14 03:29:51;;;;;;;20.67;18.87;;;;;;;17.84;nan;99010.53;2073213;28;20431;-73
2022/07/14 03:30:54;;;;;;;21.00;19.03;;;;;;;17.80;nan;99009.66;2065302;28;20459;-72
2022/07/14 03:31:56;;;;;;;20.47;18.80;;;;;;;17.80;nan;99020.44;2066694;28;20442;-72
2022/07/14 03:32:57;;;;;;;19.73;18.23;;;;;;;17.78;nan;99020.00;2066878;28;20538;-72
2022/07/14 03:34:01;;;;;;;20.30;18.60;;;;;;;17.78;nan;99020.00;2075444;28;20431;-72
2022/07/14 03:35:06;;;;;;;20.30;18.90;;;;;;;17.75;nan;99012.63;2074868;28;20200;-72
2022/07/14 03:36:08;;;;;;;19.63;18.17;;;;;;;17.77;nan;99018.44;2066357;28;20463;-72
2022/07/14 03:37:12;;;;;;;19.53;17.97;;;;;;;17.77;nan;99018.44;2076351;28;20451;-72
2022/07/14 03:38:22;;;;;;;19.93;18.20;;;;;;;17.77;nan;99026.53;2075031;28;20462;-72
2022/07/14 03:39:28;;;;;;;19.73;18.33;;;;;;;17.84;nan;99021.34;2075402;28;20516;-72
2022/07/14 03:40:31;;;;;;;19.80;17.93;;;;;;;17.87;nan;99020.63;2082886;28;20422;-73
2022/07/14 03:41:32;;;;;;;19.40;18.00;;;;;;;17.88;nan;99019.50;2074872;28;21011;-73
2022/07/14 03:42:35;;;;;;;20.20;18.40;;;;;;;17.90;nan;99028.06;2075857;28;20829;-72
2022/07/14 03:43:37;;;;;;;18.80;17.40;;;;;;;17.89;nan;99021.06;2075612;28;20193;-72
2022/07/14 03:44:39;;;;;;;19.37;17.53;;;;;;;17.92;nan;99023.09;2074673;28;20458;-72
2022/07/14 03:45:42;;;;;;;18.53;17.23;;;;;;;17.95;nan;99022.41;2066639;28;20443;-72
2022/07/14 03:46:46;;;;;;;19.47;17.90;;;;;;;17.99;nan;99023.28;2075110;28;20793;-72
2022/07/14 03:47:53;;;;;;;20.20;18.20;;;;;;;18.02;nan;99032.59;2074859;28;20502;-72
2022/07/14 03:48:54;;;;;;;19.23;17.83;;;;;;;18.05;nan;99032.69;2066889;28;20480;-73
2022/07/14 03:49:56;;;;;;;19.63;18.00;;;;;;;18.07;nan;99027.75;2074822;28;20446;-72
2022/07/14 03:50:57;;;;;;;20.17;18.63;;;;;;;18.08;nan;99023.91;2074167;28;20941;-72
2022/07/14 03:51:59;;;;;;;20.40;18.60;;;;;;;18.09;nan;99027.41;2075046;28;20439;-72
2022/07/14 03:53:00;;;;;;;20.53;18.60;;;;;;;18.10;nan;99028.19;2066368;28;20440;-72
2022/07/14 03:54:02;;;;;;;20.17;18.40;;;;;;;18.07;nan;99025.06;2074657;28;20541;-73
2022/07/14 03:55:05;;;;;;;21.53;18.57;;;;;;;18.05;nan;99018.41;2074670;28;20196;-73
2022/07/14 03:56:08;;;;;;;20.13;18.60;;;;;;;18.05;nan;99021.09;2066845;28;20436;-73
2022/07/14 03:57:19;;;;;;;19.90;18.30;;;;;;;18.01;nan;99025.63;2075217;28;20462;-73
2022/07/14 03:58:23;;;;;;;20.40;18.50;;;;;;;18.00;nan;99030.25;2074557;28;20843;-72
2022/07/14 03:59:24;;;;;;;19.80;18.10;;;;;;;17.98;nan;99029.00;2074937;28;20486;-72
2022/07/14 04:00:27;;;;;;;19.17;17.67;;;;;;;17.98;nan;99020.91;2074712;28;20451;-73
2022/07/14 04:01:30;;;;;;;19.77;18.37;;;;;;;17.96;nan;99021.25;2066714;28;20538;-73
2022/07/14 04:02:36;;;;;;;20.10;18.10;;;;;;;17.94;nan;99031.63;2067481;28;20452;-72
2022/07/14 04:03:37;;;;;;;20.00;18.30;;;;;;;17.92;nan;99027.72;2066675;28;20451;-72
2022/07/14 04:04:39;;;;;;;19.23;17.73;;;;;;;17.89;nan;99023.78;2074600;28;20481;-73
2022/07/14 04:05:41;;;;;;;19.30;17.87;;;;;;;17.88;nan;99027.59;2082676;28;20689;-72
2022/07/14 04:06:46;;;;;;;20.17;18.37;;;;;;;17.88;nan;99026.81;2066560;28;21017;-72
2022/07/14 04:07:47;;;;;;;19.20;17.60;;;;;;;17.86;nan;99029.09;2066683;28;20544;-72
2022/07/14 04:08:49;;;;;;;19.10;17.50;;;;;;;17.85;nan;99022.91;2074812;28;20458;-72
2022/07/14 04:09:51;;;;;;;20.67;18.87;;;;;;;17.85;nan;99022.13;2074831;28;20823;-73
2022/07/14 04:10:55;;;;;;;20.70;18.90;;;;;;;17.82;nan;99020.91;2074884;28;20454;-72
2022/07/14 04:11:56;;;;;;;20.03;18.40;;;;;;;17.83;nan;99030.56;2066441;28;20440;-72
2022/07/14 04:12:59;;;;;;;20.03;18.43;;;;;;;17.82;nan;99026.31;2074701;28;20796;-72
2022/07/14 04:14:02;;;;;;;19.23;17.63;;;;;;;17.82;nan;99029.00;2074504;28;20451;-73
2022/07/14 04:15:06;;;;;;;27.30;18.70;;;;;;;17.81;nan;99027.44;2066698;28;20436;-72
2022/07/14 04:16:07;;;;;;;19.03;17.43;;;;;;;17.80;nan;99026.63;2074826;28;20454;-72
2022/07/14 04:17:15;;;;;;;19.23;17.63;;;;;;;17.80;nan;99026.63;2074468;28;20457;-73
2022/07/14 04:18:15;;;;;;;19.93;18.23;;;;;;;17.79;nan;99029.66;2074729;28;20450;-73
2022/07/14 04:19:17;;;;;;;19.70;18.03;;;;;;;17.78;nan;99025.41;2074698;28;20888;-73
2022/07/14 04:20:21;;;;;;;18.80;17.47;;;;;;;17.76;nan;99025.75;2066414;28;20619;-72
2022/07/14 04:21:24;;;;;;;19.23;17.60;;;;;;;17.76;nan;99019.56;2066412;28;20464;-72
2022/07/14 04:22:27;;;;;;;19.83;18.03;;;;;;;17.75;nan;99021.50;2074668;28;20446;-73
2022/07/14 04:23:30;;;;;;;19.83;17.80;;;;;;;17.75;nan;99024.19;2075152;28;20450;-72
2022/07/14 04:24:32;;;;;;;19.87;18.30;;;;;;;17.74;nan;99021.84;2074609;28;20984;-72
2022/07/14 04:25:32;;;;;;;20.00;18.20;;;;;;;17.74;nan;99022.63;2074604;28;20466;-73
2022/07/14 04:26:37;;;;;;;19.60;18.00;;;;;;;17.76;nan;99025.75;2074534;28;20457;-72
2022/07/14 04:27:38;;;;;;;18.63;17.33;;;;;;;17.77;nan;99018.44;2074419;28;20204;-73
2022/07/14 04:28:42;;;;;;;19.60;17.97;;;;;;;17.75;nan;99018.00;2075309;28;20435;-73
2022/07/14 04:29:47;;;;;;;19.13;17.73;;;;;;;17.78;nan;99023.50;2082412;28;20936;-72
2022/07/14 04:30:50;;;;;;;19.60;17.80;;;;;;;17.84;nan;99024.03;2083044;28;20439;-72
2022/07/14 04:31:52;;;;;;;19.80;18.20;;;;;;;17.87;nan;99019.84;2074357;28;20882;-72
2022/07/14 04:32:57;;;;;;;19.63;18.03;;;;;;;17.92;nan;99023.09;2066757;28;20462;-72
2022/07/14 04:33:58;;;;;;;19.23;17.40;;;;;;;17.97;nan;99022.84;2075921;28;20552;-72
2022/07/14 04:35:03;;;;;;;19.00;17.30;;;;;;;18.05;nan;99021.88;2082540;28;20468;-72
2022/07/14 04:36:05;;;;;;;18.53;17.00;;;;;;;18.13;nan;99019.38;2075128;28;20207;-72
2022/07/14 04:37:08;;;;;;;18.93;17.30;;;;;;;18.19;nan;99018.78;2074528;28;20412;-72
2022/07/14 04:38:11;;;;;;;19.17;17.57;;;;;;;18.25;nan;99019.31;2074669;28;20482;-72
2022/07/14 04:39:18;;;;;;;18.40;17.10;;;;;;;18.30;nan;99021.75;2068519;28;20464;-72
2022/07/14 04:40:19;;;;;;;19.10;17.50;;;;;;;18.35;nan;99024.97;2074355;28;20985;-73
2022/07/14 04:41:23;;;;;;;18.40;17.10;;;;;;;18.44;nan;99021.31;2075853;28;20439;-72
2022/07/14 04:42:24;;;;;;;18.87;17.17;;;;;;;18.46;nan;99025.25;2074128;28;20196;-72
2022/07/14 04:43:28;;;;;;;18.57;17.27;;;;;;;18.48;nan;99014.84;2074226;28;20882;-72
2022/07/14 04:44:35;;;;;;;18.23;16.70;;;;;;;18.50;nan;99018.00;2077031;28;20497;-72
2022/07/14 04:45:38;;;;;;;18.77;17.40;;;;;;;18.55;nan;99022.34;2082358;28;20569;-72
2022/07/14 04:46:39;;;;;;;18.73;17.30;;;;;;;18.61;nan;99021.75;2075637;28;20903;-72
2022/07/14 04:47:43;;;;;;;18.43;16.83;;;;;;;18.67;nan;99016.09;2074423;28;20415;-72
2022/07/14 04:52:50;;;;;;;18.10;16.70;;;;;;;18.92;nan;99018.22;2069241;28;20450;-72
2022/07/14 04:54:10;;;;;;;19.43;17.73;;;;;;;19.01;nan;99011.84;2074557;28;20961;-72
2022/07/14 04:55:21;;;;;;;18.80;17.13;;;;;;;19.06;nan;99015.06;2074236;28;20958;-72
2022/07/14 04:56:38;;;;;;;18.47;17.23;;;;;;;19.08;nan;99012.78;2068539;28;20454;-72
2022/07/14 04:58:03;;;;;;;18.97;17.00;;;;;;;19.11;nan;99012.09;2074293;28;20438;-73
2022/07/14 04:59:04;;;;;;;19.73;17.83;;;;;;;19.17;nan;99015.28;2074315;28;20814;-72
2022/07/14 05:00:07;;;;;;;19.13;17.63;;;;;;;19.23;nan;99013.09;2074287;28;20471;-73
2022/07/14 05:01:12;;;;;;;19.97;18.00;;;;;;;19.23;nan;99013.88;2074323;28;20200;-73
2022/07/14 05:02:17;;;;;;;19.67;17.97;;;;;;;19.27;nan;99013.94;2067042;28;20518;-72
2022/07/14 05:03:19;;;;;;;20.20;18.20;;;;;;;19.26;nan;99012.38;2066134;28;20486;-73
2022/07/14 05:04:21;;;;;;;19.70;17.90;;;;;;;19.30;nan;99011.34;2074332;28;20447;-73